Terminal Aerodrome Forecast
Issued by NWS

Home | Current Version | Previous Version | Text Only | Print | Product List | Glossary On
Versions: 1 2 3 4 5 6 7 8 9 10 11 12 13 14 15 16 17 18 19 20 21 22 23 24 25 26 27 28 29 30 31 32 33 34 35 36 37
000
FTUS46 KEKA 281139
TAFACV
TAF
KACV 281139Z 2812/2912 00000KT P6SM SCT025 OVC030
     FM281400 06002KT P6SM BKN050 BKN100
     FM281800 35005KT P6SM FEW050 SCT100
     FM282200 33008KT P6SM FEW100
     FM290300 03003KT P6SM BKN050=

USA.gov is the U.S. government's official web portal to all federal, state and local government web resources and services.